createdAt,value
2023-03-06T00:00:23.503Z,87.64
2023-03-06T00:02:51.723Z,87.78
2023-03-06T00:05:19.195Z,87.33
2023-03-06T00:07:45.829Z,87.77
2023-03-06T00:10:15.030Z,87.31
2023-03-06T00:12:42.060Z,87.38
2023-03-06T00:15:09.454Z,87.79
2023-03-06T00:17:36.387Z,87.09
2023-03-06T00:20:04.513Z,87.15
2023-03-06T00:22:31.248Z,86.85
2023-03-06T00:24:58.056Z,87.32
2023-03-06T00:27:26.172Z,87.17
2023-03-06T00:29:57.897Z,87.88
2023-03-06T00:32:25.974Z,87.71
2023-03-06T00:34:54.141Z,87.80
2023-03-06T00:37:22.657Z,87.21
2023-03-06T00:39:49.655Z,87.38
2023-03-06T00:42:17.322Z,87.80
2023-03-06T00:44:44.269Z,87.37
2023-03-06T00:47:11.245Z,87.99
2023-03-06T00:49:38.442Z,87.66
2023-03-06T00:52:05.280Z,87.99
2023-03-06T00:54:31.922Z,88.08
2023-03-06T00:56:58.590Z,87.91
2023-03-06T00:59:25.287Z,87.69
2023-03-06T01:01:51.981Z,87.56
2023-03-06T01:04:18.743Z,87.24
2023-03-06T01:06:46.145Z,87.86
2023-03-06T01:09:13.129Z,87.63
2023-03-06T01:11:39.918Z,87.85
2023-03-06T01:14:06.734Z,87.53
2023-03-06T01:16:33.653Z,87.56
2023-03-06T01:19:00.522Z,87.50
2023-03-06T01:21:27.209Z,87.79
2023-03-06T01:23:53.860Z,87.33
2023-03-06T01:26:20.492Z,87.53
2023-03-06T01:28:47.302Z,88.08
2023-03-06T01:31:13.946Z,87.10
2023-03-06T01:33:40.603Z,87.68
2023-03-06T01:36:09.590Z,87.40
2023-03-06T01:38:36.384Z,87.75
2023-03-06T01:41:04.359Z,87.73
2023-03-06T01:43:37.082Z,87.96
2023-03-06T01:46:28.462Z,87.49
2023-03-06T01:48:56.841Z,87.83
2023-03-06T01:51:28.806Z,87.61
2023-03-06T01:53:57.446Z,87.66
2023-03-06T01:56:25.044Z,88.07
2023-03-06T01:58:52.789Z,87.63
2023-03-06T02:01:20.035Z,87.81
2023-03-06T02:03:49.738Z,87.44
2023-03-06T02:06:19.755Z,87.47
2023-03-06T02:08:49.529Z,88.07
2023-03-06T02:11:22.120Z,87.96
2023-03-06T02:13:50.145Z,87.42
2023-03-06T02:16:17.817Z,88.20
2023-03-06T02:18:45.817Z,88.25
2023-03-06T02:21:20.248Z,87.68
2023-03-06T02:24:15.811Z,87.82
2023-03-06T02:26:44.841Z,88.27
2023-03-06T02:29:11.701Z,87.73
2023-03-06T02:31:38.392Z,88.14
2023-03-06T02:34:14.125Z,87.85
2023-03-06T02:36:45.393Z,88.37
2023-03-06T02:39:13.263Z,87.83
2023-03-06T02:41:40.039Z,87.96
2023-03-06T02:44:06.942Z,88.09
2023-03-06T02:46:33.651Z,88.56
2023-03-06T02:49:00.431Z,88.24
2023-03-06T02:51:27.073Z,88.03
2023-03-06T02:53:53.794Z,87.85
2023-03-06T02:56:20.485Z,88.01
2023-03-06T02:58:47.140Z,88.50
2023-03-06T03:01:13.907Z,88.46
2023-03-06T03:03:40.646Z,88.56
2023-03-06T03:06:07.807Z,87.93
2023-03-06T03:08:34.962Z,88.14
2023-03-06T03:11:02.036Z,88.12
2023-03-06T03:13:28.688Z,88.12
2023-03-06T03:16:03.981Z,87.78
2023-03-06T03:18:30.629Z,88.45
2023-03-06T03:20:57.733Z,87.86
2023-03-06T03:23:25.295Z,87.96
2023-03-06T03:25:52.085Z,88.34
2023-03-06T03:28:19.261Z,88.09
2023-03-06T03:30:46.264Z,87.76
2023-03-06T03:33:12.992Z,88.23
2023-03-06T03:35:39.736Z,87.86
2023-03-06T03:38:06.399Z,88.20
2023-03-06T03:40:33.080Z,88.59
2023-03-06T03:42:59.794Z,88.45
2023-03-06T03:45:26.586Z,87.98
2023-03-06T03:47:53.248Z,87.84
2023-03-06T03:50:20.168Z,88.25
2023-03-06T03:52:46.847Z,88.36
2023-03-06T03:55:13.524Z,87.91
2023-03-06T03:57:40.234Z,87.92
2023-03-06T04:00:08.009Z,88.23
2023-03-06T04:02:34.685Z,87.95
2023-03-06T04:05:01.472Z,88.13
2023-03-06T04:07:28.158Z,88.79
2023-03-06T04:09:54.983Z,88.84
2023-03-06T04:12:21.620Z,88.03
2023-03-06T04:14:48.270Z,88.61
2023-03-06T04:17:15.045Z,88.40
2023-03-06T04:19:43.447Z,88.99
2023-03-06T04:22:10.079Z,88.56
2023-03-06T04:24:36.741Z,88.98
2023-03-06T04:27:03.409Z,88.78
2023-03-06T04:29:30.077Z,87.88
2023-03-06T04:31:56.788Z,88.19
2023-03-06T04:34:23.489Z,88.23
2023-03-06T04:36:50.193Z,88.25
2023-03-06T04:39:17.239Z,88.39
2023-03-06T04:41:43.873Z,88.66
2023-03-06T04:44:10.770Z,88.55
2023-03-06T04:46:37.613Z,88.71
2023-03-06T04:49:04.296Z,88.42
2023-03-06T04:51:37.464Z,87.90
2023-03-06T04:54:05.097Z,88.02
2023-03-06T04:56:31.794Z,88.44
2023-03-06T04:58:58.502Z,88.74
2023-03-06T05:05:14.136Z,88.68
2023-03-06T05:07:41.219Z,88.21
2023-03-06T05:10:12.035Z,88.34
2023-03-06T05:12:39.440Z,88.62
2023-03-06T05:15:07.430Z,88.96
2023-03-06T05:17:34.488Z,88.28
2023-03-06T05:20:01.191Z,88.83
2023-03-06T05:22:28.376Z,88.70
2023-03-06T05:24:55.026Z,88.56
2023-03-06T05:27:22.141Z,88.78
2023-03-06T05:29:48.862Z,88.05
2023-03-06T05:32:16.985Z,88.69
2023-03-06T05:34:43.835Z,88.73
2023-03-06T05:37:10.549Z,88.04
2023-03-06T05:39:37.405Z,88.02
2023-03-06T05:42:04.329Z,88.39
2023-03-06T05:44:34.152Z,88.14
2023-03-06T05:47:01.760Z,88.53
2023-03-06T05:49:32.883Z,88.53
2023-03-06T05:51:59.940Z,88.66
2023-03-06T05:54:26.683Z,88.47
2023-03-06T05:56:53.593Z,88.07
2023-03-06T05:59:20.335Z,88.71
2023-03-06T06:01:47.076Z,88.75
2023-03-06T06:04:13.801Z,88.63
2023-03-06T06:06:40.435Z,89.08
2023-03-06T06:09:07.128Z,89.20
2023-03-06T06:11:33.785Z,88.58
2023-03-06T06:14:00.450Z,88.22
2023-03-06T06:16:27.099Z,88.62
2023-03-06T06:18:53.740Z,88.81
2023-03-06T06:21:20.442Z,88.49
2023-03-06T06:23:47.122Z,88.95
2023-03-06T06:26:13.764Z,89.04
2023-03-06T06:28:40.443Z,88.56
2023-03-06T06:31:12.644Z,89.13
2023-03-06T06:33:40.100Z,88.32
2023-03-06T06:36:18.765Z,88.83
2023-03-06T06:38:45.460Z,88.28
2023-03-06T06:41:38.918Z,89.18
2023-03-06T06:43:59.292Z,89.16
2023-03-06T06:47:10.782Z,89.14
2023-03-06T06:49:14.755Z,89.00
2023-03-06T06:51:41.549Z,89.00
2023-03-06T06:54:08.295Z,88.55
2023-03-06T06:56:34.956Z,88.73
2023-03-06T06:59:15.737Z,89.39
2023-03-06T07:01:42.948Z,88.80
2023-03-06T07:04:12.335Z,89.27
2023-03-06T07:06:38.828Z,89.24
2023-03-06T07:09:08.178Z,88.98
2023-03-06T07:11:34.713Z,88.93
2023-03-06T07:14:01.948Z,89.02
2023-03-06T07:16:28.523Z,89.09
2023-03-06T07:18:54.999Z,88.55
2023-03-06T07:21:21.844Z,89.12
2023-03-06T07:23:48.400Z,88.64
2023-03-06T07:26:14.878Z,88.51
2023-03-06T07:28:51.878Z,89.22
2023-03-06T07:31:24.842Z,89.10
2023-03-06T07:33:53.081Z,89.17
2023-03-06T07:36:20.859Z,88.99
2023-03-06T07:38:47.386Z,89.54
2023-03-06T07:41:16.288Z,89.23
2023-03-06T07:43:44.157Z,89.26
2023-03-06T07:46:12.388Z,89.67
2023-03-06T07:48:39.013Z,89.48
2023-03-06T07:51:08.316Z,90.02
2023-03-06T07:53:35.226Z,89.46
2023-03-06T07:56:08.473Z,88.92
2023-03-06T07:58:36.651Z,89.04
2023-03-06T08:01:09.234Z,89.10
2023-03-06T08:03:36.278Z,89.54
2023-03-06T08:06:10.037Z,89.04
2023-03-06T08:08:39.399Z,89.47
2023-03-06T08:11:07.702Z,89.45
2023-03-06T08:13:35.268Z,89.19
2023-03-06T08:16:02.094Z,89.28
2023-03-06T08:18:28.620Z,89.31
2023-03-06T08:21:02.760Z,89.24
2023-03-06T08:23:29.462Z,89.31
2023-03-06T08:25:57.990Z,89.53
2023-03-06T08:28:24.938Z,88.96
2023-03-06T08:30:51.569Z,88.92
2023-03-06T08:33:18.051Z,89.57
2023-03-06T08:35:44.637Z,89.06
2023-03-06T08:38:11.133Z,89.35
2023-03-06T08:40:38.440Z,89.03
2023-03-06T08:43:05.080Z,89.08
2023-03-06T08:45:31.606Z,88.91
2023-03-06T08:47:58.393Z,89.20
2023-03-06T08:50:25.112Z,89.12
2023-03-06T08:52:51.796Z,89.15
2023-03-06T08:55:18.622Z,88.85
2023-03-06T08:57:45.803Z,89.05
2023-03-06T09:00:13.900Z,88.91
2023-03-06T09:02:40.521Z,89.18
2023-03-06T09:05:08.496Z,88.92
2023-03-06T09:07:35.565Z,88.97
2023-03-06T09:10:02.046Z,89.02
2023-03-06T09:12:30.722Z,88.97
2023-03-06T09:14:57.373Z,89.39
2023-03-06T09:17:23.839Z,88.81
2023-03-06T09:19:50.902Z,89.21
2023-03-06T09:22:17.376Z,88.96
2023-03-06T09:24:43.858Z,88.26
2023-03-06T09:27:10.329Z,88.71
2023-03-06T09:29:36.992Z,88.68
2023-03-06T09:32:04.787Z,88.38
2023-03-06T09:34:31.351Z,88.34
2023-03-06T09:36:58.009Z,88.83
2023-03-06T09:39:25.843Z,88.27
2023-03-06T09:41:53.557Z,87.74
2023-03-06T09:49:02.532Z,87.47
2023-03-06T09:51:39.225Z,87.60
2023-03-06T09:54:16.213Z,87.92
2023-03-06T09:56:48.753Z,87.43
2023-03-06T09:59:21.784Z,86.85
2023-03-06T10:02:18.775Z,87.13
2023-03-06T10:04:55.966Z,87.21
2023-03-06T10:07:27.383Z,87.18
2023-03-06T10:09:59.204Z,87.58
2023-03-06T10:12:29.109Z,86.99
2023-03-06T10:15:16.114Z,87.64
2023-03-06T10:17:43.644Z,87.13
2023-03-06T10:20:36.685Z,86.37
2023-03-06T10:23:54.528Z,86.33
2023-03-06T10:26:26.830Z,87.00
2023-03-06T10:29:27.042Z,87.26
2023-03-06T10:32:03.770Z,87.30
2023-03-06T10:34:35.339Z,88.28
2023-03-06T10:37:19.866Z,88.29
2023-03-06T10:39:48.234Z,87.11
2023-03-06T10:42:14.711Z,86.97
2023-03-06T10:44:41.188Z,85.95
2023-03-06T10:47:27.853Z,85.81
2023-03-06T10:50:00.371Z,85.79
2023-03-06T10:52:35.254Z,85.17
2023-03-06T10:55:26.396Z,85.38
2023-03-06T10:57:53.075Z,84.75
2023-03-06T11:00:26.350Z,84.39
2023-03-06T11:03:22.802Z,84.18
2023-03-06T11:06:04.842Z,84.75
2023-03-06T11:08:32.250Z,84.08
2023-03-06T11:11:03.030Z,83.59
2023-03-06T11:13:36.310Z,83.00
2023-03-06T11:16:15.964Z,82.63
2023-03-06T11:18:55.579Z,83.09
2023-03-06T11:21:47.567Z,83.33
2023-03-06T11:24:20.205Z,83.09
2023-03-06T11:27:30.369Z,82.93
2023-03-06T11:29:59.591Z,82.91
2023-03-06T11:32:42.971Z,80.77
2023-03-06T11:35:13.762Z,79.07
2023-03-06T11:37:54.133Z,79.67
2023-03-06T11:40:29.267Z,78.49
2023-03-06T11:43:04.286Z,77.63
2023-03-06T11:45:44.835Z,77.89
2023-03-06T11:48:14.278Z,78.21
2023-03-06T11:50:46.181Z,79.58
2023-03-06T11:53:19.103Z,79.16
2023-03-06T11:55:51.541Z,81.17
2023-03-06T11:58:43.031Z,79.23
2023-03-06T12:01:24.282Z,80.33
2023-03-06T12:04:14.227Z,79.72
2023-03-06T12:06:52.008Z,80.33
2023-03-06T12:09:43.631Z,78.39
2023-03-06T12:12:22.065Z,80.68
2023-03-06T12:14:57.723Z,79.87
2023-03-06T12:17:48.003Z,78.24
2023-03-06T12:20:33.195Z,77.57
2023-03-06T12:23:17.913Z,78.51
2023-03-06T12:25:55.423Z,77.11
2023-03-06T12:28:38.960Z,78.44
2023-03-06T12:31:17.819Z,78.36
2023-03-06T12:34:06.039Z,78.84
2023-03-06T12:36:57.647Z,78.93
2023-03-06T12:39:40.483Z,78.90
2023-03-06T12:42:38.657Z,79.19
2023-03-06T12:45:18.508Z,77.06
2023-03-06T12:47:48.124Z,73.55
2023-03-06T12:50:29.393Z,75.70
2023-03-06T12:52:59.017Z,75.94
2023-03-06T12:55:26.301Z,76.53
2023-03-06T12:57:53.774Z,77.15
2023-03-06T13:00:32.367Z,75.75
2023-03-06T13:03:18.790Z,76.07
2023-03-06T13:06:23.185Z,77.15
2023-03-06T13:09:14.679Z,77.67
2023-03-06T13:11:47.048Z,77.34
2023-03-06T13:14:24.529Z,77.95
2023-03-06T13:16:51.389Z,78.58
2023-03-06T13:19:26.402Z,78.46
2023-03-06T13:21:55.792Z,78.40
2023-03-06T13:24:31.953Z,76.00
2023-03-06T13:27:12.275Z,76.66
2023-03-06T13:29:38.897Z,77.74
2023-03-06T13:32:14.509Z,77.96
2023-03-06T13:34:43.222Z,77.69
2023-03-06T13:37:19.757Z,77.84
2023-03-06T13:40:12.103Z,77.60
2023-03-06T13:42:44.705Z,77.32
2023-03-06T13:45:16.587Z,77.93
2023-03-06T13:50:46.780Z,78.22
2023-03-06T13:53:53.125Z,78.44
2023-03-06T13:56:41.322Z,77.47
2023-03-06T13:59:42.996Z,77.55
2023-03-06T14:02:28.196Z,77.68
2023-03-06T14:04:57.453Z,77.23
2023-03-06T14:07:51.943Z,77.40
2023-03-06T14:10:25.836Z,77.21
2023-03-06T14:13:02.842Z,76.61
2023-03-06T14:15:42.402Z,77.15
2023-03-06T14:18:25.149Z,77.40
2023-03-06T14:20:51.968Z,77.82
2023-03-06T14:23:21.289Z,77.90
2023-03-06T14:25:54.619Z,77.77
2023-03-06T14:28:36.536Z,77.53
2023-03-06T14:31:05.725Z,77.66
2023-03-06T14:33:34.685Z,76.88
2023-03-06T14:36:08.152Z,76.53
2023-03-06T14:38:43.798Z,76.95
2023-03-06T14:41:11.763Z,77.19
2023-03-06T14:43:39.707Z,77.51
2023-03-06T14:46:07.062Z,77.12
2023-03-06T14:48:42.493Z,77.35
2023-03-06T14:51:17.608Z,76.36
2023-03-06T14:53:47.960Z,77.35
2023-03-06T14:56:18.733Z,76.76
2023-03-06T14:58:53.883Z,76.91
2023-03-06T15:01:42.050Z,76.94
2023-03-06T15:04:26.413Z,76.45
2023-03-06T15:06:54.479Z,75.93
2023-03-06T15:09:27.805Z,76.25
2023-03-06T15:12:08.423Z,76.10
2023-03-06T15:14:37.868Z,76.01
2023-03-06T15:17:38.860Z,75.64
2023-03-06T15:20:10.243Z,76.24
2023-03-06T15:22:43.513Z,76.29
2023-03-06T15:25:26.710Z,76.73
2023-03-06T15:27:58.853Z,76.15
2023-03-06T15:30:33.446Z,75.88
2023-03-06T15:33:25.725Z,76.43
2023-03-06T15:35:57.032Z,74.92
2023-03-06T15:38:42.681Z,74.40
2023-03-06T15:41:33.924Z,75.04
2023-03-06T15:44:02.560Z,75.07
2023-03-06T15:46:29.916Z,74.53
2023-03-06T15:49:04.230Z,73.99
2023-03-06T15:51:32.155Z,74.81
2023-03-06T15:54:11.119Z,75.19
2023-03-06T15:56:43.444Z,75.39
2023-03-06T15:59:22.023Z,74.96
2023-03-06T16:01:49.289Z,75.59
2023-03-06T16:04:17.030Z,76.38
2023-03-06T16:06:45.844Z,77.31
2023-03-06T16:09:13.450Z,77.13
2023-03-06T16:11:47.029Z,77.43
2023-03-06T16:14:23.537Z,77.76
2023-03-06T16:16:52.366Z,78.07
2023-03-06T16:19:26.786Z,78.40
2023-03-06T16:21:54.342Z,78.65
2023-03-06T16:24:20.859Z,78.65
2023-03-06T16:26:52.610Z,79.22
2023-03-06T16:29:25.126Z,79.61
2023-03-06T16:31:51.726Z,79.49
2023-03-06T16:34:19.748Z,80.14
2023-03-06T16:36:48.026Z,79.85
2023-03-06T16:39:20.009Z,80.24
2023-03-06T16:41:47.058Z,80.39
2023-03-06T16:44:13.670Z,80.83
2023-03-06T16:46:45.587Z,81.01
2023-03-06T16:49:17.258Z,80.64
2023-03-06T16:51:44.125Z,81.02
2023-03-06T16:54:11.113Z,81.30
2023-03-06T16:56:37.595Z,81.99
2023-03-06T16:59:04.206Z,81.53
2023-03-06T17:01:30.799Z,81.71
2023-03-06T17:03:57.360Z,81.29
2023-03-06T17:09:14.171Z,81.46
2023-03-06T17:11:42.886Z,81.80
2023-03-06T17:14:09.390Z,82.01
2023-03-06T17:16:40.059Z,81.76
2023-03-06T17:19:07.326Z,82.59
2023-03-06T17:21:35.349Z,82.36
2023-03-06T17:24:03.600Z,82.92
2023-03-06T17:26:30.172Z,82.33
2023-03-06T17:28:56.700Z,82.42
2023-03-06T17:31:26.527Z,82.86
2023-03-06T17:34:00.389Z,83.03
2023-03-06T17:36:31.572Z,82.89
2023-03-06T17:39:00.224Z,83.04
2023-03-06T17:41:27.015Z,83.11
2023-03-06T17:43:57.708Z,83.10
2023-03-06T17:46:24.653Z,82.75
2023-03-06T17:48:51.137Z,83.13
2023-03-06T17:51:17.596Z,82.83
2023-03-06T17:53:44.127Z,83.51
2023-03-06T17:56:13.439Z,83.70
2023-03-06T17:58:39.916Z,82.76
2023-03-06T18:01:15.858Z,83.55
2023-03-06T18:03:47.789Z,83.00
2023-03-06T18:06:15.256Z,82.98
2023-03-06T18:08:42.103Z,83.36
2023-03-06T18:11:10.849Z,83.00
2023-03-06T18:13:40.106Z,83.51
2023-03-06T18:16:08.063Z,83.07
2023-03-06T18:18:35.248Z,83.15
2023-03-06T18:21:09.322Z,83.21
2023-03-06T18:23:37.412Z,82.98
2023-03-06T18:26:13.463Z,83.71
2023-03-06T18:28:42.324Z,83.59
2023-03-06T18:31:21.951Z,83.41
2023-03-06T18:33:49.386Z,83.10
2023-03-06T18:36:16.777Z,83.19
2023-03-06T18:38:45.412Z,83.23
2023-03-06T18:41:13.460Z,83.17
2023-03-06T18:43:40.128Z,83.68
2023-03-06T18:46:06.689Z,83.61
2023-03-06T18:48:33.182Z,83.47
2023-03-06T18:51:07.860Z,83.27
2023-03-06T18:53:34.920Z,83.25
2023-03-06T18:56:01.908Z,83.38
2023-03-06T18:58:28.378Z,83.69
2023-03-06T19:00:55.869Z,83.90
2023-03-06T19:03:23.230Z,83.32
2023-03-06T19:05:49.828Z,83.03
2023-03-06T19:08:17.704Z,83.85
2023-03-06T19:10:49.897Z,84.04
2023-03-06T19:13:16.531Z,83.54
2023-03-06T19:15:45.551Z,83.61
2023-03-06T19:18:15.368Z,82.95
2023-03-06T19:20:41.937Z,83.54
2023-03-06T19:23:09.202Z,83.33
2023-03-06T19:25:36.292Z,83.43
2023-03-06T19:28:03.469Z,83.45
2023-03-06T19:30:29.984Z,83.69
2023-03-06T19:32:56.965Z,83.66
2023-03-06T19:35:24.686Z,83.82
2023-03-06T19:37:52.004Z,84.31
2023-03-06T19:40:18.959Z,83.53
2023-03-06T19:42:46.189Z,83.57
2023-03-06T19:45:12.822Z,83.91
2023-03-06T19:47:39.441Z,83.82
2023-03-06T19:50:06.582Z,83.83
2023-03-06T19:52:37.213Z,83.74
2023-03-06T19:55:04.102Z,84.15
2023-03-06T19:57:30.805Z,84.59
2023-03-06T19:59:58.657Z,83.68
2023-03-06T20:02:27.149Z,83.58
2023-03-06T20:04:54.945Z,84.26
2023-03-06T20:07:22.127Z,83.76
2023-03-06T20:09:48.928Z,83.82
2023-03-06T20:12:15.803Z,83.50
2023-03-06T20:14:42.837Z,84.63
2023-03-06T20:17:09.608Z,84.06
2023-03-06T20:19:36.577Z,84.33
2023-03-06T20:22:03.606Z,84.11
2023-03-06T20:24:30.307Z,83.99
2023-03-06T20:26:58.335Z,84.53
2023-03-06T20:29:28.124Z,84.14
2023-03-06T20:31:56.882Z,84.26
2023-03-06T20:34:25.715Z,84.50
2023-03-06T20:36:52.812Z,84.09
2023-03-06T20:39:21.711Z,84.38
2023-03-06T20:41:48.768Z,84.45
2023-03-06T20:44:18.230Z,84.78
2023-03-06T20:46:45.768Z,84.64
2023-03-06T20:49:13.144Z,84.75
2023-03-06T20:51:40.342Z,84.68
2023-03-06T20:54:09.807Z,85.06
2023-03-06T20:56:39.320Z,84.85
2023-03-06T20:59:06.421Z,85.07
2023-03-06T21:01:36.163Z,84.99
2023-03-06T21:04:04.397Z,85.01
2023-03-06T21:06:31.852Z,84.61
2023-03-06T21:08:59.794Z,84.73
2023-03-06T21:11:27.829Z,84.89
2023-03-06T21:13:55.154Z,85.12
2023-03-06T21:16:24.039Z,84.97
2023-03-06T21:18:50.876Z,84.79
2023-03-06T21:21:20.232Z,84.75
2023-03-06T21:23:48.273Z,84.67
2023-03-06T21:26:20.809Z,85.24
2023-03-06T21:28:47.692Z,84.87
2023-03-06T21:31:16.319Z,84.80
2023-03-06T21:33:43.835Z,84.36
2023-03-06T21:36:11.096Z,84.29
2023-03-06T21:38:38.010Z,83.88
2023-03-06T21:41:16.877Z,84.04
2023-03-06T21:43:43.851Z,84.37
2023-03-06T21:46:11.912Z,83.30
2023-03-06T21:48:38.597Z,83.38
2023-03-06T21:51:06.245Z,83.34
2023-03-06T21:53:32.922Z,82.41
2023-03-06T21:56:01.595Z,82.91
2023-03-06T21:58:29.232Z,82.98
2023-03-06T22:00:56.087Z,82.90
2023-03-06T22:03:22.869Z,82.73
2023-03-06T22:05:49.507Z,82.47
2023-03-06T22:08:16.132Z,82.85
2023-03-06T22:10:42.808Z,82.04
2023-03-06T22:13:09.478Z,82.62
2023-03-06T22:15:36.469Z,82.80
2023-03-06T22:18:03.216Z,82.39
2023-03-06T22:20:29.877Z,82.76
2023-03-06T22:22:56.533Z,82.33
2023-03-06T22:25:23.173Z,82.52
2023-03-06T22:27:49.813Z,82.92
2023-03-06T22:30:17.721Z,83.02
2023-03-06T22:32:44.471Z,82.63
2023-03-06T22:35:11.177Z,83.00
2023-03-06T22:37:37.881Z,82.35
2023-03-06T22:40:04.964Z,83.83
2023-03-06T22:42:31.666Z,83.94
2023-03-06T22:44:58.315Z,84.24
2023-03-06T22:47:24.938Z,84.43
2023-03-06T22:49:51.598Z,84.06
2023-03-06T22:52:19.521Z,84.88
2023-03-06T22:54:46.141Z,85.34
2023-03-06T22:57:12.813Z,85.03
2023-03-06T22:59:39.498Z,84.80
2023-03-06T23:02:06.158Z,84.83
2023-03-06T23:04:32.850Z,85.56
2023-03-06T23:06:59.572Z,85.66
2023-03-06T23:09:26.599Z,85.66
2023-03-06T23:11:53.359Z,85.75
2023-03-06T23:14:20.201Z,85.67
2023-03-06T23:16:47.053Z,86.41
2023-03-06T23:19:13.725Z,87.64
2023-03-06T23:21:40.947Z,87.20
2023-03-06T23:24:07.685Z,87.37
2023-03-06T23:26:34.933Z,86.62
2023-03-06T23:29:01.952Z,87.54
2023-03-06T23:31:30.698Z,87.16
2023-03-06T23:33:59.770Z,86.79
2023-03-06T23:36:27.062Z,87.61
2023-03-06T23:38:54.151Z,87.90
2023-03-06T23:41:22.185Z,87.85
2023-03-06T23:43:49.856Z,87.65
2023-03-06T23:46:17.068Z,87.84
2023-03-06T23:48:44.421Z,88.10
2023-03-06T23:51:19.300Z,87.81
2023-03-06T23:53:46.817Z,87.96
2023-03-06T23:56:13.610Z,87.96
2023-03-06T23:58:40.792Z,87.62
